Terminal Aerodrome Forecast
Issued by NWS

Home | Current Version | Previous Version | Text Only | Print | Product List | Glossary On
Versions: 1 2 3 4 5 6 7 8 9 10 11 12 13 14 15 16
000
FTUS46 KMTR 271400 AAA
TAFSTS
TAF AMD
KSTS 271447Z 2715/2812 00000KT 2SM BR OVC002
     FM271600 VRB03KT P6SM FEW015
     FM271900 18008KT P6SM SKC
     FM280400 15004KT P6SM SKC=

USA.gov is the U.S. government's official web portal to all federal, state and local government web resources and services.